Time;durP1;ratioP1;P1;durP2;ratioP2;P2;SDS_P1;SDS_P2;PMS_P1;PMS_P2;Temp;Humidity;BMP_temperature;BMP_pressure;BME280_temperature;BME280_humidity;BME280_pressure;Samples;Min_cycle;Max_cycle;Signal;HPM_P1;HPM_P2
2021/07/07 00:00:55;;;;;;;1.83;1.73;;;17.30;86.70;;;;;;5011179;28;20232;-89
2021/07/07 00:03:21;;;;;;;5.03;1.70;;;17.40;86.70;;;;;;4997414;28;20188;-88
2021/07/07 00:05:46;;;;;;;2.05;1.70;;;17.40;86.30;;;;;;5009202;28;20281;-88
2021/07/07 00:08:12;;;;;;;1.70;1.60;;;17.50;85.50;;;;;;5015238;28;20272;-89
2021/07/07 00:10:38;;;;;;;2.20;1.70;;;17.50;85.80;;;;;;4985594;28;20276;-89
2021/07/07 00:13:04;;;;;;;2.35;1.70;;;17.50;85.00;;;;;;4994320;28;20207;-89
2021/07/07 00:15:32;;;;;;;3.03;1.50;;;17.50;86.80;;;;;;4994967;28;20188;-89
2021/07/07 00:18:05;;;;;;;1.65;1.55;;;17.60;86.40;;;;;;4994844;28;20541;-89
2021/07/07 00:20:44;;;;;;;2.20;2.10;;;17.70;86.80;;;;;;4993137;28;20297;-89
2021/07/07 00:23:14;;;;;;;1.58;1.48;;;17.80;85.30;;;;;;4992791;28;20227;-90
2021/07/07 00:25:40;;;;;;;2.97;1.80;;;17.90;85.70;;;;;;4998953;28;20189;-89
2021/07/07 00:28:05;;;;;;;2.80;1.83;;;17.90;86.20;;;;;;4995872;28;20599;-89
2021/07/07 00:30:31;;;;;;;2.03;1.80;;;17.90;85.50;;;;;;5006482;28;20263;-88
2021/07/07 00:32:57;;;;;;;3.17;2.10;;;17.90;86.10;;;;;;5002001;28;20681;-90
2021/07/07 00:35:25;;;;;;;2.35;1.90;;;18.00;85.70;;;;;;4990380;28;20204;-88
2021/07/07 00:37:50;;;;;;;3.42;1.98;;;18.20;85.80;;;;;;5013619;28;20501;-86
2021/07/07 00:40:16;;;;;;;4.72;1.85;;;18.00;85.20;;;;;;5012443;28;20291;-89
2021/07/07 00:42:42;;;;;;;6.30;2.65;;;18.00;86.60;;;;;;4993565;28;20193;-88
2021/07/07 00:45:09;;;;;;;5.13;2.03;;;18.00;86.90;;;;;;4998676;28;20199;-89
2021/07/07 00:47:35;;;;;;;3.75;1.88;;;18.00;86.80;;;;;;5013882;28;20221;-88
2021/07/07 00:50:01;;;;;;;4.78;1.67;;;18.10;86.30;;;;;;5008567;28;20564;-89
2021/07/07 00:52:26;;;;;;;3.22;1.90;;;18.10;86.00;;;;;;5004395;28;20217;-89
2021/07/07 00:54:52;;;;;;;3.22;1.60;;;18.10;85.70;;;;;;5006181;28;20187;-89
2021/07/07 00:57:19;;;;;;;7.80;1.73;;;18.00;86.50;;;;;;4976176;28;20182;-90
2021/07/07 00:59:45;;;;;;;3.60;1.92;;;17.90;86.40;;;;;;4993873;28;20201;-86
2021/07/07 01:02:16;;;;;;;2.28;1.67;;;17.90;86.60;;;;;;5012654;28;20181;-88
2021/07/07 01:04:41;;;;;;;4.32;2.00;;;17.80;87.30;;;;;;5013269;28;20189;-88
2021/07/07 01:07:07;;;;;;;4.35;1.63;;;17.90;86.90;;;;;;4993544;28;20197;-88
2021/07/07 01:09:33;;;;;;;4.72;1.95;;;17.90;87.60;;;;;;4993126;28;20581;-88
2021/07/07 01:11:59;;;;;;;2.95;1.85;;;17.70;87.90;;;;;;5010112;28;20251;-88
2021/07/07 01:14:25;;;;;;;2.40;1.90;;;17.90;87.90;;;;;;5013126;28;20562;-88
2021/07/07 01:16:51;;;;;;;3.50;1.88;;;17.80;87.90;;;;;;5013376;28;20188;-87
2021/07/07 01:19:16;;;;;;;4.53;2.05;;;17.80;87.20;;;;;;5008926;28;20600;-88
2021/07/07 01:21:49;;;;;;;7.57;2.08;;;17.90;88.00;;;;;;4993062;28;20700;-87
2021/07/07 01:24:17;;;;;;;5.15;2.08;;;17.80;88.00;;;;;;4998255;28;20169;-88
2021/07/07 01:26:43;;;;;;;5.15;1.80;;;17.80;88.20;;;;;;5014324;28;20239;-88
2021/07/07 01:29:09;;;;;;;3.22;1.80;;;17.80;88.50;;;;;;5002217;28;20186;-88
2021/07/07 01:31:37;;;;;;;5.35;1.83;;;17.90;88.60;;;;;;5003755;28;20215;-87
2021/07/07 01:34:04;;;;;;;3.15;2.17;;;17.90;88.00;;;;;;4993024;28;20286;-88
2021/07/07 01:36:31;;;;;;;1.83;1.73;;;17.70;88.40;;;;;;5012963;28;20173;-88
2021/07/07 01:38:57;;;;;;;3.50;2.22;;;17.80;88.00;;;;;;5008540;28;20194;-88
2021/07/07 01:41:25;;;;;;;2.20;1.90;;;17.80;87.70;;;;;;5018328;28;20297;-87
2021/07/07 01:43:51;;;;;;;3.70;1.90;;;17.80;87.40;;;;;;5012004;28;20330;-87
2021/07/07 01:46:17;;;;;;;2.95;2.33;;;17.70;86.60;;;;;;5018270;28;20244;-87
2021/07/07 01:48:43;;;;;;;3.35;2.00;;;17.60;88.00;;;;;;5002912;28;20189;-87
2021/07/07 01:51:09;;;;;;;4.85;1.92;;;17.60;88.30;;;;;;4998817;28;20234;-87
2021/07/07 01:53:35;;;;;;;2.45;2.00;;;17.60;87.20;;;;;;5013457;28;20190;-88
2021/07/07 01:56:00;;;;;;;6.38;1.90;;;17.60;86.80;;;;;;5013458;28;20260;-89
2021/07/07 01:58:26;;;;;;;5.45;2.28;;;17.60;87.50;;;;;;5013341;28;20197;-88
2021/07/07 02:00:53;;;;;;;1.92;1.80;;;17.60;88.10;;;;;;4977816;28;20256;-88
2021/07/07 02:03:19;;;;;;;2.95;2.03;;;17.70;88.20;;;;;;4993877;28;20205;-87
2021/07/07 02:05:45;;;;;;;3.35;1.67;;;17.70;87.70;;;;;;5005864;28;20192;-88
2021/07/07 02:08:12;;;;;;;2.40;2.00;;;17.70;88.10;;;;;;4995495;28;20553;-88
2021/07/07 02:10:38;;;;;;;2.10;1.92;;;17.70;87.00;;;;;;5006268;28;20240;-88
2021/07/07 02:13:08;;;;;;;6.20;2.45;;;17.60;88.10;;;;;;5012475;28;20210;-88
2021/07/07 02:15:35;;;;;;;2.03;1.73;;;17.60;87.40;;;;;;5005498;28;20712;-88
2021/07/07 02:18:02;;;;;;;2.88;2.03;;;17.60;87.20;;;;;;4995916;28;20178;-87
2021/07/07 02:20:30;;;;;;;4.10;2.00;;;17.60;88.10;;;;;;5011082;28;20201;-86
2021/07/07 02:22:56;;;;;;;2.15;1.95;;;17.60;88.40;;;;;;5016096;28;20176;-85
2021/07/07 02:25:29;;;;;;;2.40;1.90;;;17.70;87.90;;;;;;5021803;28;20173;-85
2021/07/07 02:27:56;;;;;;;2.47;2.10;;;17.70;88.10;;;;;;5013858;28;20193;-88
2021/07/07 02:30:25;;;;;;;2.15;1.98;;;17.80;87.00;;;;;;5012559;28;20207;-88
2021/07/07 02:32:52;;;;;;;2.08;1.98;;;17.80;86.70;;;;;;5007820;28;20208;-88
2021/07/07 02:35:20;;;;;;;2.00;1.90;;;17.70;88.70;;;;;;4993975;28;20185;-88
2021/07/07 02:37:49;;;;;;;5.20;2.25;;;17.60;88.70;;;;;;5011578;28;20180;-86
2021/07/07 02:40:17;;;;;;;4.93;2.33;;;17.60;88.80;;;;;;5006674;28;20280;-88
2021/07/07 02:42:43;;;;;;;2.35;1.85;;;17.60;88.60;;;;;;4974121;28;20190;-88
2021/07/07 02:45:10;;;;;;;2.47;1.88;;;17.60;88.90;;;;;;4995044;28;20234;-87
2021/07/07 02:47:36;;;;;;;6.10;2.33;;;17.60;88.80;;;;;;5001735;28;20190;-88
2021/07/07 02:50:02;;;;;;;8.10;2.38;;;17.70;88.30;;;;;;4993260;28;20212;-87
2021/07/07 02:52:28;;;;;;;4.45;2.00;;;17.70;88.90;;;;;;4993319;28;20216;-88
2021/07/07 02:54:54;;;;;;;9.38;2.30;;;17.70;88.90;;;;;;4991466;28;20200;-88
2021/07/07 02:57:19;;;;;;;5.85;2.00;;;17.70;88.10;;;;;;4991351;28;20259;-88
2021/07/07 02:59:45;;;;;;;4.03;2.10;;;17.70;88.20;;;;;;5000131;28;20806;-88
2021/07/07 03:02:11;;;;;;;5.03;2.30;;;17.60;88.70;;;;;;4991017;28;20193;-88
2021/07/07 03:04:36;;;;;;;2.60;2.10;;;17.70;88.50;;;;;;4976059;28;20219;-88
2021/07/07 03:07:05;;;;;;;3.65;2.25;;;17.60;88.50;;;;;;5010796;28;20650;-88
2021/07/07 03:09:31;;;;;;;6.20;2.40;;;17.70;88.20;;;;;;5010504;28;20194;-87
2021/07/07 03:11:57;;;;;;;3.33;2.10;;;17.80;87.70;;;;;;5010485;28;20534;-87
2021/07/07 03:14:22;;;;;;;4.32;2.00;;;17.80;87.10;;;;;;4993346;28;20206;-88
2021/07/07 03:16:48;;;;;;;2.13;1.92;;;17.70;88.40;;;;;;5010426;28;20196;-88
2021/07/07 03:19:14;;;;;;;4.20;2.00;;;17.50;89.30;;;;;;4983837;28;20189;-89
2021/07/07 03:21:39;;;;;;;8.15;2.35;;;17.50;89.10;;;;;;5012959;28;20274;-87
2021/07/07 03:24:06;;;;;;;4.57;2.05;;;17.50;89.10;;;;;;5001098;28;20199;-87
2021/07/07 03:26:31;;;;;;;6.07;2.00;;;17.50;89.80;;;;;;5017175;28;20205;-88
2021/07/07 03:28:57;;;;;;;8.02;2.00;;;17.40;89.60;;;;;;5018891;28;20176;-88
2021/07/07 03:31:23;;;;;;;2.58;2.38;;;17.50;89.10;;;;;;5010763;28;20569;-88
2021/07/07 03:33:48;;;;;;;9.13;2.30;;;17.40;89.30;;;;;;5001612;28;20321;-88
2021/07/07 03:36:14;;;;;;;5.63;2.45;;;17.40;89.80;;;;;;5012554;28;20193;-86
2021/07/07 03:38:40;;;;;;;5.97;2.20;;;17.50;89.40;;;;;;4988863;28;20577;-88
2021/07/07 03:41:05;;;;;;;2.45;2.08;;;17.50;88.80;;;;;;5010100;28;20218;-88
2021/07/07 03:43:31;;;;;;;3.58;2.22;;;17.60;88.10;;;;;;5020640;28;20184;-88
2021/07/07 03:45:57;;;;;;;6.82;2.40;;;17.60;88.30;;;;;;5008954;28;20197;-88
2021/07/07 03:48:23;;;;;;;4.60;2.35;;;17.50;88.70;;;;;;5011981;28;20253;-88
2021/07/07 03:50:48;;;;;;;5.97;2.30;;;17.40;89.20;;;;;;5018193;28;20209;-88
2021/07/07 03:53:14;;;;;;;6.17;2.20;;;17.50;89.30;;;;;;4995734;28;20212;-87
2021/07/07 03:55:40;;;;;;;2.53;1.90;;;17.40;88.80;;;;;;4996357;28;20273;-88
2021/07/07 03:58:05;;;;;;;4.40;2.53;;;17.40;89.20;;;;;;4995940;28;20370;-88
2021/07/07 04:00:32;;;;;;;2.33;2.10;;;17.30;89.40;;;;;;5010964;28;20231;-89
2021/07/07 04:02:58;;;;;;;3.20;2.20;;;17.20;89.60;;;;;;4997090;28;20204;-88
2021/07/07 04:05:25;;;;;;;7.97;1.90;;;17.00;90.50;;;;;;5001384;28;20249;-88
2021/07/07 04:07:51;;;;;;;3.87;2.10;;;17.00;91.20;;;;;;4982351;28;20280;-87
2021/07/07 04:10:18;;;;;;;2.20;2.00;;;17.00;90.70;;;;;;4998656;28;20342;-88
2021/07/07 04:12:44;;;;;;;4.30;2.05;;;17.20;89.90;;;;;;4997809;28;20345;-88
2021/07/07 04:15:12;;;;;;;2.50;2.30;;;17.30;90.50;;;;;;5001329;28;20196;-89
2021/07/07 04:17:38;;;;;;;3.70;2.05;;;17.20;90.10;;;;;;5001076;28;20232;-88
2021/07/07 04:20:11;;;;;;;3.97;2.20;;;17.20;89.30;;;;;;5007841;28;20207;-88
2021/07/07 04:22:38;;;;;;;2.28;1.90;;;17.10;90.00;;;;;;5004065;28;20550;-88
2021/07/07 04:25:07;;;;;;;2.17;1.98;;;17.20;89.80;;;;;;5003177;28;20556;-87
2021/07/07 04:27:32;;;;;;;4.45;2.10;;;17.30;90.30;;;;;;5002051;28;20194;-88
2021/07/07 04:29:58;;;;;;;2.42;2.22;;;17.30;89.10;;;;;;5019236;28;20219;-88
2021/07/07 04:32:24;;;;;;;4.60;2.15;;;17.30;89.80;;;;;;4985701;28;20211;-88
2021/07/07 04:34:53;;;;;;;3.67;2.20;;;17.30;89.60;;;;;;5000776;28;20249;-87
2021/07/07 04:37:18;;;;;;;3.88;2.33;;;17.40;89.00;;;;;;5002150;28;20192;-88
2021/07/07 04:39:44;;;;;;;4.47;2.58;;;17.50;89.50;;;;;;4999812;28;20207;-88
2021/07/07 04:42:10;;;;;;;4.93;2.30;;;17.50;89.10;;;;;;4999487;28;20264;-87
2021/07/07 04:44:36;;;;;;;3.55;2.20;;;17.50;88.90;;;;;;4999788;28;20202;-88
2021/07/07 04:47:01;;;;;;;3.38;2.22;;;17.60;88.40;;;;;;4999283;28;20192;-88
2021/07/07 04:49:27;;;;;;;3.20;2.38;;;17.70;88.20;;;;;;4999822;28;20253;-88
2021/07/07 04:51:53;;;;;;;3.15;2.40;;;17.60;88.10;;;;;;5007116;28;20213;-88
2021/07/07 04:54:18;;;;;;;3.50;2.35;;;17.70;88.10;;;;;;4983911;28;20185;-90
2021/07/07 04:56:44;;;;;;;5.68;2.80;;;17.70;87.90;;;;;;4997401;28;20220;-89
2021/07/07 04:59:10;;;;;;;3.20;2.58;;;17.80;87.10;;;;;;4994124;28;20185;-89
2021/07/07 05:01:38;;;;;;;4.80;2.47;;;17.70;86.40;;;;;;5017275;28;20603;-89
2021/07/07 05:04:05;;;;;;;3.78;2.80;;;17.70;87.70;;;;;;5014941;28;20276;-90
2021/07/07 05:06:31;;;;;;;3.67;2.35;;;17.70;88.40;;;;;;4999305;28;20189;-90
2021/07/07 05:08:57;;;;;;;8.13;2.55;;;17.60;89.20;;;;;;4998489;28;20213;-89
2021/07/07 05:11:23;;;;;;;4.70;2.92;;;17.60;89.70;;;;;;5032414;28;20245;-88
2021/07/07 05:13:49;;;;;;;5.80;3.08;;;17.50;89.50;;;;;;5024886;28;20194;-90
2021/07/07 05:16:14;;;;;;;6.25;2.97;;;17.30;90.00;;;;;;5017873;28;20207;-88
2021/07/07 05:18:40;;;;;;;6.13;2.65;;;17.30;90.20;;;;;;5023372;28;20207;-88
2021/07/07 05:21:06;;;;;;;4.72;3.15;;;17.40;90.50;;;;;;5020548;28;20233;-88
2021/07/07 05:23:34;;;;;;;6.57;2.83;;;17.30;90.90;;;;;;5028673;28;20218;-91
2021/07/07 05:26:01;;;;;;;5.00;2.85;;;17.30;90.30;;;;;;5016513;28;20191;-89
2021/07/07 05:28:27;;;;;;;7.30;2.83;;;17.40;90.10;;;;;;4997905;28;20193;-89
2021/07/07 05:30:54;;;;;;;5.13;2.77;;;17.20;90.40;;;;;;4997666;28;20222;-89
2021/07/07 05:33:20;;;;;;;2.70;2.50;;;17.20;91.90;;;;;;5016325;28;20801;-90
2021/07/07 05:35:45;;;;;;;4.63;3.05;;;17.20;91.50;;;;;;5017161;28;20184;-89
2021/07/07 05:38:11;;;;;;;3.33;2.78;;;17.40;90.80;;;;;;5015639;28;20192;-88
2021/07/07 05:40:37;;;;;;;4.28;2.78;;;17.40;91.40;;;;;;5016725;28;20212;-89
2021/07/07 05:43:03;;;;;;;3.38;3.10;;;17.40;90.90;;;;;;4998436;28;20186;-88
2021/07/07 05:45:29;;;;;;;4.15;2.80;;;17.30;90.90;;;;;;5015592;28;20203;-89
2021/07/07 05:47:56;;;;;;;3.80;3.23;;;17.30;91.70;;;;;;4997496;28;20188;-88
2021/07/07 05:50:23;;;;;;;2.90;2.70;;;17.30;91.10;;;;;;4981444;28;20231;-89
2021/07/07 05:52:49;;;;;;;3.95;2.80;;;17.30;91.90;;;;;;4998186;28;20203;-88
2021/07/07 05:55:15;;;;;;;4.17;2.80;;;17.40;91.10;;;;;;5015516;28;20264;-88
2021/07/07 05:57:41;;;;;;;3.40;3.10;;;17.50;90.70;;;;;;5014932;28;20515;-89
2021/07/07 06:00:22;;;;;;;3.65;3.28;;;17.60;91.10;;;;;;5007598;28;20210;-88
2021/07/07 06:02:48;;;;;;;3.53;3.13;;;17.60;90.50;;;;;;4996904;28;20197;-88
2021/07/07 06:05:15;;;;;;;4.82;3.10;;;17.70;90.60;;;;;;5020773;28;20191;-86
2021/07/07 06:07:41;;;;;;;3.20;2.60;;;17.70;89.80;;;;;;5023572;28;20597;-88
2021/07/07 06:10:09;;;;;;;4.57;2.83;;;17.80;89.60;;;;;;4997797;28;20235;-88
2021/07/07 06:12:35;;;;;;;3.75;2.58;;;17.90;89.60;;;;;;4989010;28;20254;-89
2021/07/07 06:15:01;;;;;;;2.97;2.60;;;17.90;89.60;;;;;;4995299;28;20188;-89
2021/07/07 06:17:27;;;;;;;5.05;3.28;;;18.00;89.40;;;;;;5016167;28;20170;-86
2021/07/07 06:19:53;;;;;;;5.82;3.28;;;17.80;88.00;;;;;;5026974;28;20200;-86
2021/07/07 06:22:18;;;;;;;5.78;3.35;;;17.70;89.70;;;;;;5004484;28;20212;-86
2021/07/07 06:24:44;;;;;;;6.28;3.17;;;17.50;90.60;;;;;;4987271;28;20224;-87
2021/07/07 06:27:10;;;;;;;6.68;2.97;;;17.50;90.60;;;;;;4975118;28;20606;-86
2021/07/07 06:29:35;;;;;;;3.38;3.05;;;17.60;89.90;;;;;;4978570;28;20581;-88
2021/07/07 06:32:01;;;;;;;3.80;2.93;;;17.60;90.10;;;;;;4977978;28;20302;-87
2021/07/07 06:34:27;;;;;;;4.35;3.17;;;17.50;89.80;;;;;;4988548;28;20201;-88
2021/07/07 06:36:53;;;;;;;4.13;2.90;;;17.60;89.90;;;;;;5007124;28;20724;-87
2021/07/07 06:39:18;;;;;;;3.85;3.08;;;17.70;88.60;;;;;;4977877;28;20238;-89
2021/07/07 06:41:44;;;;;;;4.30;3.20;;;17.70;89.50;;;;;;5009532;28;20197;-88
2021/07/07 06:44:10;;;;;;;3.43;3.00;;;17.70;89.00;;;;;;4997415;28;20197;-88
2021/07/07 06:46:36;;;;;;;5.50;3.10;;;17.50;89.70;;;;;;4997228;28;20255;-88
2021/07/07 06:49:02;;;;;;;6.80;2.80;;;17.40;90.40;;;;;;5015474;28;20441;-87
2021/07/07 06:51:28;;;;;;;3.67;3.10;;;17.30;90.70;;;;;;4993909;28;20229;-88
2021/07/07 06:53:54;;;;;;;6.10;3.40;;;17.20;91.70;;;;;;5008864;28;20677;-87
2021/07/07 06:56:22;;;;;;;4.30;3.00;;;17.30;91.40;;;;;;5010455;28;20192;-87
2021/07/07 06:58:48;;;;;;;5.55;3.30;;;17.50;90.50;;;;;;5000444;28;20199;-87
2021/07/07 07:01:14;;;;;;;5.18;2.80;;;17.40;90.90;;;;;;5008430;28;20341;-88
2021/07/07 07:03:39;;;;;;;4.53;3.42;;;17.40;91.40;;;;;;4976604;28;20291;-88
2021/07/07 07:06:05;;;;;;;3.13;2.75;;;17.50;90.90;;;;;;4980699;28;20289;-89
2021/07/07 07:08:32;;;;;;;2.90;2.70;;;17.60;90.70;;;;;;5008283;28;20207;-88
2021/07/07 07:10:58;;;;;;;6.30;3.00;;;17.60;89.50;;;;;;4993878;28;20284;-87
2021/07/07 07:13:24;;;;;;;4.40;3.50;;;17.60;88.90;;;;;;4994613;28;20237;-88
2021/07/07 07:15:49;;;;;;;4.87;3.40;;;17.50;89.20;;;;;;4996097;28;20584;-88
2021/07/07 07:18:15;;;;;;;4.13;3.30;;;17.40;91.40;;;;;;5008388;28;20197;-88
2021/07/07 07:20:41;;;;;;;7.20;3.80;;;17.50;90.80;;;;;;4996611;28;20217;-88
2021/07/07 07:23:08;;;;;;;5.93;3.50;;;17.60;90.60;;;;;;5003752;28;20197;-88
2021/07/07 07:25:34;;;;;;;4.50;3.50;;;17.70;89.70;;;;;;5009499;28;20676;-87
2021/07/07 07:28:00;;;;;;;3.87;3.40;;;17.60;89.90;;;;;;4998427;28;20193;-87
2021/07/07 07:30:27;;;;;;;6.50;3.77;;;17.60;90.60;;;;;;5012308;28;20220;-89
2021/07/07 07:32:53;;;;;;;4.83;3.83;;;17.50;90.80;;;;;;4979780;28;20248;-88
2021/07/07 07:35:20;;;;;;;4.63;3.90;;;17.60;90.00;;;;;;4994842;28;20192;-88
2021/07/07 07:37:59;;;;;;;5.00;3.20;;;17.70;89.90;;;;;;5006025;28;20193;-89
2021/07/07 07:40:31;;;;;;;4.50;3.33;;;17.70;89.70;;;;;;5013795;28;20297;-88
2021/07/07 07:42:57;;;;;;;3.80;3.10;;;17.70;90.70;;;;;;5017674;28;20199;-89
2021/07/07 07:45:23;;;;;;;4.80;3.03;;;17.70;89.80;;;;;;5010255;28;20280;-89
2021/07/07 07:47:49;;;;;;;5.60;3.33;;;17.90;89.80;;;;;;4979884;28;20290;-88
2021/07/07 07:50:17;;;;;;;4.53;3.10;;;18.10;90.90;;;;;;5016695;28;20227;-88
2021/07/07 07:52:43;;;;;;;4.63;3.33;;;18.20;88.00;;;;;;5004265;28;20220;-86
2021/07/07 07:55:10;;;;;;;5.78;2.95;;;18.30;88.00;;;;;;5004258;28;20213;-87
2021/07/07 07:57:37;;;;;;;6.40;3.10;;;18.30;87.50;;;;;;5001309;28;20223;-85
2021/07/07 08:00:09;;;;;;;10.93;3.88;;;18.10;88.00;;;;;;5004094;28;20207;-84
2021/07/07 08:02:35;;;;;;;6.40;3.28;;;17.90;89.40;;;;;;5014281;28;20191;-85
2021/07/07 08:05:01;;;;;;;3.75;2.35;;;17.90;89.60;;;;;;4998820;28;20204;-88
2021/07/07 08:07:29;;;;;;;5.22;2.70;;;18.00;89.40;;;;;;4981014;28;20246;-89
2021/07/07 08:09:56;;;;;;;2.92;2.42;;;18.10;89.00;;;;;;5007959;28;20222;-87
2021/07/07 08:12:22;;;;;;;5.95;2.85;;;18.30;88.50;;;;;;5013522;28;20271;-87
2021/07/07 08:14:50;;;;;;;4.30;2.63;;;18.40;87.90;;;;;;5008352;28;20722;-88
2021/07/07 08:17:20;;;;;;;5.00;2.65;;;18.60;86.10;;;;;;4988812;28;20184;-88
2021/07/07 08:19:47;;;;;;;4.80;2.90;;;18.60;86.80;;;;;;4997309;28;20309;-87
2021/07/07 08:22:13;;;;;;;3.60;3.10;;;18.70;85.40;;;;;;4996486;28;20265;-88
2021/07/07 08:24:39;;;;;;;3.10;2.67;;;18.50;86.10;;;;;;4996677;28;20648;-88
2021/07/07 08:27:04;;;;;;;4.22;2.92;;;18.80;87.20;;;;;;4989310;28;20223;-88
2021/07/07 08:29:30;;;;;;;9.57;3.72;;;19.10;83.30;;;;;;5007858;28;20278;-89
2021/07/07 08:31:56;;;;;;;3.50;2.65;;;19.20;83.80;;;;;;5005201;28;20213;-88
2021/07/07 08:34:21;;;;;;;4.75;2.60;;;19.30;82.90;;;;;;4979253;28;20190;-89
2021/07/07 08:36:47;;;;;;;7.93;3.30;;;19.40;82.70;;;;;;4982257;28;20277;-88
2021/07/07 08:39:13;;;;;;;2.97;2.60;;;19.50;80.70;;;;;;5001366;28;20186;-88
2021/07/07 08:41:39;;;;;;;3.13;2.85;;;19.70;80.30;;;;;;5000203;28;20189;-88
2021/07/07 08:44:08;;;;;;;4.15;2.45;;;19.90;82.80;;;;;;5002972;28;20190;-88
2021/07/07 08:46:35;;;;;;;2.60;2.40;;;19.90;79.80;;;;;;5001610;28;20216;-88
2021/07/07 08:49:01;;;;;;;8.00;3.17;;;19.90;80.60;;;;;;5009080;28;20591;-88
2021/07/07 08:51:27;;;;;;;4.93;2.47;;;20.00;80.80;;;;;;4998583;28;20903;-88
2021/07/07 08:53:53;;;;;;;2.58;2.38;;;20.30;80.20;;;;;;4993001;28;20204;-88
2021/07/07 08:56:18;;;;;;;5.50;2.50;;;20.60;78.00;;;;;;4998952;28;20258;-88
2021/07/07 08:58:45;;;;;;;3.00;2.40;;;20.80;74.50;;;;;;4990322;28;20184;-89
2021/07/07 09:01:11;;;;;;;2.72;2.08;;;20.90;75.30;;;;;;5005081;28;20236;-89
2021/07/07 09:03:43;;;;;;;3.88;2.50;;;20.90;76.00;;;;;;5003042;28;20201;-88
2021/07/07 09:06:10;;;;;;;2.35;2.25;;;21.00;75.70;;;;;;5004895;28;20193;-87
2021/07/07 09:08:44;;;;;;;3.60;2.38;;;21.00;75.40;;;;;;5008259;28;20273;-88
2021/07/07 09:11:26;;;;;;;2.38;2.17;;;21.20;72.00;;;;;;5014065;28;20220;-89
2021/07/07 09:14:11;;;;;;;2.72;2.22;;;21.10;72.10;;;;;;5014571;28;20235;-89
2021/07/07 09:17:01;;;;;;;4.93;2.60;;;21.20;69.80;;;;;;5003294;28;20192;-86
2021/07/07 09:19:27;;;;;;;2.67;2.05;;;21.40;70.80;;;;;;4986426;28;20185;-89
2021/07/07 09:21:56;;;;;;;3.03;2.00;;;21.70;70.60;;;;;;4998471;28;20271;-89
2021/07/07 09:24:25;;;;;;;3.28;2.30;;;21.60;70.10;;;;;;5001290;28;20198;-91
2021/07/07 09:27:11;;;;;;;4.00;2.10;;;21.50;68.30;;;;;;5003116;28;20596;-91
2021/07/07 09:29:51;;;;;;;3.42;2.55;;;21.50;69.90;;;;;;5010234;28;20221;-91
2021/07/07 09:32:28;;;;;;;2.13;2.00;;;21.90;69.10;;;;;;4998579;28;20625;-92
2021/07/07 09:34:59;;;;;;;2.60;2.40;;;22.20;67.00;;;;;;5001613;28;20181;-91
2021/07/07 09:37:35;;;;;;;4.18;2.25;;;22.40;70.10;;;;;;4981140;28;20664;-92
2021/07/07 09:40:01;;;;;;;4.63;2.47;;;22.20;67.40;;;;;;5003666;28;20204;-89
2021/07/07 09:42:31;;;;;;;3.05;2.03;;;22.10;64.20;;;;;;5005764;28;20190;-89
2021/07/07 09:44:59;;;;;;;5.25;2.22;;;22.60;63.60;;;;;;5001772;28;20197;-90
2021/07/07 09:47:26;;;;;;;3.22;2.30;;;22.70;62.10;;;;;;4997302;28;20252;-90
2021/07/07 09:49:52;;;;;;;6.68;2.70;;;22.80;61.20;;;;;;5001011;28;20208;-90
2021/07/07 09:52:21;;;;;;;3.25;2.35;;;23.10;61.00;;;;;;5002144;28;20535;-90
2021/07/07 09:54:47;;;;;;;4.65;2.03;;;23.30;59.30;;;;;;5004682;28;20229;-90
2021/07/07 09:57:14;;;;;;;2.45;2.25;;;23.20;62.40;;;;;;5002152;28;20221;-90
2021/07/07 09:59:40;;;;;;;3.28;2.15;;;23.30;60.30;;;;;;4991900;28;20289;-89
2021/07/07 10:02:06;;;;;;;3.67;2.40;;;23.60;57.30;;;;;;5005886;28;20216;-90
2021/07/07 10:04:33;;;;;;;4.15;2.33;;;23.90;55.40;;;;;;5011016;28;20228;-89
2021/07/07 10:07:00;;;;;;;4.03;2.53;;;24.10;57.50;;;;;;5001630;28;20205;-89
2021/07/07 10:09:27;;;;;;;4.72;2.45;;;24.00;58.90;;;;;;4978909;28;20220;-89
2021/07/07 10:11:56;;;;;;;2.72;2.10;;;23.80;56.50;;;;;;4994447;28;20717;-89
2021/07/07 10:14:23;;;;;;;2.63;1.80;;;24.10;57.20;;;;;;5013109;28;20170;-88
2021/07/07 10:16:50;;;;;;;2.22;2.05;;;24.10;57.60;;;;;;5008675;28;20182;-87
2021/07/07 10:19:17;;;;;;;2.42;2.22;;;24.10;55.20;;;;;;4994723;28;20201;-90
2021/07/07 10:21:43;;;;;;;2.28;2.08;;;24.10;57.80;;;;;;5005752;28;20423;-90
2021/07/07 10:24:10;;;;;;;3.92;2.22;;;24.40;56.80;;;;;;4997651;28;20197;-90
2021/07/07 10:26:37;;;;;;;4.88;2.05;;;24.90;53.80;;;;;;5000516;28;20212;-90
2021/07/07 10:29:03;;;;;;;3.75;2.35;;;25.20;53.40;;;;;;5011601;28;20571;-89
2021/07/07 10:31:47;;;;;;;3.60;2.53;;;25.20;51.60;;;;;;5014174;28;20229;-89
2021/07/07 10:34:14;;;;;;;3.83;2.30;;;25.20;50.90;;;;;;5000715;28;20178;-90
2021/07/07 10:36:40;;;;;;;4.63;2.40;;;25.40;49.40;;;;;;4997301;28;20186;-89
2021/07/07 10:39:08;;;;;;;5.03;2.33;;;25.80;52.40;;;;;;5004486;28;20186;-90
2021/07/07 10:41:50;;;;;;;5.40;2.50;;;25.10;53.40;;;;;;4997519;28;20205;-89
2021/07/07 10:44:22;;;;;;;3.33;2.38;;;25.00;52.20;;;;;;5000910;28;20216;-90
2021/07/07 10:46:50;;;;;;;2.65;2.38;;;25.10;51.50;;;;;;5010619;28;20693;-90
2021/07/07 10:49:39;;;;;;;2.63;2.30;;;25.30;51.00;;;;;;5003093;28;20205;-88
2021/07/07 10:52:07;;;;;;;2.88;2.35;;;25.40;50.00;;;;;;5016110;28;20244;-89
2021/07/07 10:54:35;;;;;;;6.00;2.30;;;26.00;48.80;;;;;;4992847;28;20274;-89
2021/07/07 10:57:04;;;;;;;2.95;2.20;;;26.10;48.00;;;;;;4975102;28;20186;-89
2021/07/07 10:59:45;;;;;;;3.75;2.03;;;26.30;46.80;;;;;;4983128;28;20182;-88
2021/07/07 11:02:25;;;;;;;3.10;2.60;;;26.60;46.80;;;;;;5004834;28;20186;-89
2021/07/07 11:04:52;;;;;;;4.90;2.83;;;26.60;48.00;;;;;;5002011;28;20182;-89
2021/07/07 11:07:33;;;;;;;3.15;2.50;;;26.20;47.70;;;;;;4973294;28;20190;-89
2021/07/07 11:10:07;;;;;;;3.58;2.63;;;26.20;47.60;;;;;;4995702;28;20248;-90
2021/07/07 11:12:36;;;;;;;2.67;2.20;;;26.40;47.20;;;;;;4994668;28;20205;-90
2021/07/07 11:15:22;;;;;;;4.00;2.60;;;26.60;46.10;;;;;;5003248;28;20217;-88
2021/07/07 11:18:00;;;;;;;4.75;2.90;;;26.40;46.10;;;;;;5023270;28;20174;-87
2021/07/07 11:20:29;;;;;;;4.72;2.25;;;26.40;50.40;;;;;;5034160;28;20217;-90
2021/07/07 11:22:59;;;;;;;4.03;2.30;;;26.30;46.30;;;;;;5022885;28;20195;-90
2021/07/07 11:25:26;;;;;;;4.47;2.80;;;26.10;48.20;;;;;;5027317;28;20196;-89
2021/07/07 11:27:52;;;;;;;2.67;2.47;;;26.70;46.20;;;;;;5004625;28;20178;-90
2021/07/07 11:30:20;;;;;;;3.95;2.70;;;27.20;46.10;;;;;;5016668;28;20742;-90
2021/07/07 11:32:48;;;;;;;5.05;2.50;;;27.40;47.20;;;;;;5014260;28;20678;-90
2021/07/07 11:35:16;;;;;;;6.70;2.80;;;27.40;47.10;;;;;;5002129;28;20186;-90
2021/07/07 11:37:43;;;;;;;4.55;2.83;;;27.50;46.10;;;;;;4992274;28;20665;-90
2021/07/07 11:40:14;;;;;;;3.90;2.65;;;27.50;45.90;;;;;;5007475;28;20252;-91
2021/07/07 11:42:59;;;;;;;4.85;2.53;;;27.80;44.70;;;;;;5000959;28;20183;-90
2021/07/07 11:45:36;;;;;;;2.90;2.60;;;28.40;41.20;;;;;;4996579;28;21504;-90
2021/07/07 11:48:13;;;;;;;4.30;2.63;;;28.20;42.40;;;;;;4994413;28;20170;-89
2021/07/07 11:50:43;;;;;;;3.83;2.90;;;28.30;41.70;;;;;;5016055;28;20193;-89
2021/07/07 11:53:09;;;;;;;2.92;2.40;;;28.60;41.60;;;;;;4998805;28;20241;-89
2021/07/07 11:55:44;;;;;;;3.35;2.40;;;28.50;39.10;;;;;;5008213;28;20254;-88
2021/07/07 11:58:10;;;;;;;5.43;2.90;;;28.60;41.30;;;;;;5012496;28;20257;-90
2021/07/07 12:00:39;;;;;;;4.07;2.78;;;28.60;40.00;;;;;;4999654;28;20202;-90
2021/07/07 12:03:05;;;;;;;4.05;2.80;;;28.70;39.90;;;;;;5009360;28;20237;-91
2021/07/07 12:05:31;;;;;;;3.85;2.67;;;28.60;40.30;;;;;;4996112;28;20179;-92
2021/07/07 12:08:26;;;;;;;5.57;2.63;;;28.20;43.00;;;;;;5001238;28;20208;-89
2021/07/07 12:11:02;;;;;;;3.35;2.90;;;28.60;41.10;;;;;;5003513;28;20229;-90
2021/07/07 12:13:29;;;;;;;5.32;2.97;;;29.00;39.40;;;;;;4996213;28;20202;-88
2021/07/07 12:16:19;;;;;;;3.88;3.03;;;28.90;41.50;;;;;;4999908;28;20182;-90
2021/07/07 12:18:52;;;;;;;4.78;2.78;;;28.60;39.30;;;;;;5001799;28;20673;-90
2021/07/07 12:21:24;;;;;;;3.58;2.63;;;28.80;38.10;;;;;;4985320;28;20209;-89
2021/07/07 12:24:02;;;;;;;5.03;3.00;;;28.70;35.50;;;;;;4995215;28;20187;-90
2021/07/07 12:26:31;;;;;;;5.40;3.35;;;29.30;36.60;;;;;;5000754;28;20181;-88
2021/07/07 12:29:00;;;;;;;7.20;3.38;;;29.80;34.90;;;;;;5003778;28;20796;-90
2021/07/07 12:31:30;;;;;;;3.53;2.80;;;30.20;33.90;;;;;;4997312;28;20216;-89
2021/07/07 12:33:56;;;;;;;6.03;3.13;;;29.80;34.30;;;;;;4997473;28;20604;-90
2021/07/07 12:36:27;;;;;;;4.40;3.20;;;30.20;34.70;;;;;;5003301;28;20677;-90
2021/07/07 12:38:58;;;;;;;5.00;2.75;;;30.70;34.60;;;;;;4998226;28;20232;-89
2021/07/07 12:41:37;;;;;;;4.32;2.75;;;30.40;33.90;;;;;;5000395;28;20286;-90
2021/07/07 12:46:32;;;;;;;4.63;3.17;;;30.20;33.70;;;;;;5005271;28;20194;-89
2021/07/07 12:48:58;;;;;;;6.53;2.85;;;30.30;35.00;;;;;;4997667;28;20245;-90
2021/07/07 12:51:29;;;;;;;2.70;2.50;;;30.60;33.70;;;;;;4989418;28;20256;-89
2021/07/07 12:53:57;;;;;;;5.85;3.10;;;30.30;33.10;;;;;;5012379;28;20214;-89